createdAt,value
2022-12-31T00:01:37.338Z,4.20
2022-12-31T00:04:03.870Z,4.40
2022-12-31T00:06:32.635Z,4.55
2022-12-31T00:09:01.001Z,5.00
2022-12-31T00:11:29.103Z,6.03
2022-12-31T00:13:57.069Z,6.45
2022-12-31T00:16:30.394Z,6.60
2022-12-31T00:18:59.290Z,6.88
2022-12-31T00:21:28.984Z,7.70
2022-12-31T00:23:56.120Z,6.63
2022-12-31T00:26:25.392Z,5.25
2022-12-31T00:28:53.754Z,5.63
2022-12-31T00:31:32.634Z,5.00
2022-12-31T00:33:59.814Z,4.32
2022-12-31T00:36:35.484Z,4.00
2022-12-31T00:39:04.099Z,8.88
2022-12-31T00:41:31.503Z,9.02
2022-12-31T00:43:58.317Z,7.75
2022-12-31T00:46:25.263Z,7.60
2022-12-31T00:48:52.085Z,6.80
2022-12-31T00:51:21.292Z,5.85
2022-12-31T00:53:47.667Z,6.47
2022-12-31T00:56:20.967Z,5.85
2022-12-31T00:58:48.540Z,6.07
2022-12-31T01:01:37.248Z,5.45
2022-12-31T01:04:08.796Z,5.97
2022-12-31T01:06:35.441Z,5.57
2022-12-31T01:09:02.284Z,5.57
2022-12-31T01:11:28.699Z,5.05
2022-12-31T01:13:57.789Z,4.55
2022-12-31T01:16:27.214Z,4.50
2022-12-31T01:18:54.035Z,4.50
2022-12-31T01:21:21.963Z,4.40
2022-12-31T01:23:48.619Z,4.00
2022-12-31T01:26:16.778Z,3.88
2022-12-31T01:28:43.210Z,3.70
2022-12-31T01:31:15.109Z,4.20
2022-12-31T01:33:43.497Z,3.55
2022-12-31T01:36:21.712Z,3.10
2022-12-31T01:38:51.962Z,2.33
2022-12-31T01:41:21.539Z,2.50
2022-12-31T01:43:50.871Z,2.55
2022-12-31T01:46:25.060Z,2.50
2022-12-31T01:48:55.823Z,2.65
2022-12-31T01:51:23.852Z,2.97
2022-12-31T01:53:50.523Z,3.53
2022-12-31T01:56:21.610Z,2.38
2022-12-31T01:58:51.930Z,2.75
2022-12-31T02:01:37.926Z,2.45
2022-12-31T02:04:08.800Z,2.88
2022-12-31T02:06:41.492Z,2.50
2022-12-31T02:09:08.956Z,2.50
2022-12-31T02:11:35.864Z,2.35
2022-12-31T02:14:06.394Z,2.83
2022-12-31T02:16:57.504Z,2.80
2022-12-31T02:19:57.794Z,2.70
2022-12-31T02:23:01.502Z,2.80
2022-12-31T02:25:46.401Z,2.90
2022-12-31T02:28:30.593Z,2.67
2022-12-31T02:31:16.857Z,2.83
2022-12-31T02:34:13.471Z,3.20
2022-12-31T02:36:43.551Z,2.72
2022-12-31T02:39:12.510Z,3.53
2022-12-31T02:41:39.012Z,3.05
2022-12-31T02:44:41.744Z,3.60
2022-12-31T02:47:08.147Z,4.18
2022-12-31T02:49:43.488Z,5.03
2022-12-31T02:52:21.186Z,4.75
2022-12-31T02:55:14.831Z,5.57
2022-12-31T02:57:53.494Z,5.60
2022-12-31T03:00:20.310Z,5.43
2022-12-31T03:02:49.817Z,5.70
2022-12-31T03:05:19.249Z,4.80
2022-12-31T03:07:46.360Z,3.80
2022-12-31T03:10:13.049Z,4.32
2022-12-31T03:12:40.985Z,3.50
2022-12-31T03:15:09.557Z,3.58
2022-12-31T03:17:35.967Z,3.45
2022-12-31T03:20:02.452Z,3.40
2022-12-31T03:22:30.057Z,3.08
2022-12-31T03:25:00.192Z,3.28
2022-12-31T03:27:26.600Z,3.47
2022-12-31T03:29:53.078Z,3.80
2022-12-31T03:32:19.472Z,3.70
2022-12-31T03:34:45.768Z,4.30
2022-12-31T03:37:12.074Z,4.65
2022-12-31T03:39:38.567Z,4.82
2022-12-31T03:42:04.993Z,4.53
2022-12-31T03:44:31.383Z,4.13
2022-12-31T03:46:57.724Z,4.53
2022-12-31T03:49:24.028Z,4.63
2022-12-31T03:51:50.393Z,4.80
2022-12-31T03:54:16.900Z,5.05
2022-12-31T03:56:43.286Z,4.25
2022-12-31T03:59:09.752Z,4.28
2022-12-31T04:01:36.168Z,3.90
2022-12-31T04:04:02.775Z,4.70
2022-12-31T04:06:29.078Z,5.10
2022-12-31T04:08:55.479Z,4.72
2022-12-31T04:11:21.879Z,4.00
2022-12-31T04:13:48.234Z,3.88
2022-12-31T04:16:14.680Z,3.85
2022-12-31T04:18:41.060Z,3.50
2022-12-31T04:21:07.461Z,3.67
2022-12-31T04:23:33.829Z,3.05
2022-12-31T04:26:00.227Z,3.22
2022-12-31T04:28:26.599Z,4.07
2022-12-31T04:30:53.010Z,3.42
2022-12-31T04:33:19.431Z,3.40
2022-12-31T04:35:45.763Z,3.25
2022-12-31T04:38:12.181Z,2.90
2022-12-31T04:40:38.624Z,3.03
2022-12-31T04:43:04.924Z,2.83
2022-12-31T04:45:31.425Z,3.22
2022-12-31T04:47:57.822Z,2.95
2022-12-31T04:50:24.132Z,2.58
2022-12-31T04:52:50.502Z,2.63
2022-12-31T04:55:16.912Z,3.17
2022-12-31T04:57:43.217Z,2.72
2022-12-31T05:00:10.310Z,2.92
2022-12-31T05:02:36.777Z,3.38
2022-12-31T05:05:03.280Z,3.45
2022-12-31T05:07:29.697Z,3.80
2022-12-31T05:09:56.156Z,3.97
2022-12-31T05:12:22.521Z,4.18
2022-12-31T05:14:48.895Z,4.10
2022-12-31T05:17:15.288Z,4.45
2022-12-31T05:19:41.691Z,3.97
2022-12-31T05:22:08.096Z,4.35
2022-12-31T05:24:34.556Z,4.70
2022-12-31T05:27:00.950Z,4.65
2022-12-31T05:29:27.245Z,4.30
2022-12-31T05:31:53.566Z,4.50
2022-12-31T05:34:19.997Z,5.47
2022-12-31T05:36:46.324Z,5.20
2022-12-31T05:39:12.672Z,4.22
2022-12-31T05:41:39.045Z,4.95
2022-12-31T05:44:05.444Z,5.18
2022-12-31T05:46:31.791Z,4.97
2022-12-31T05:48:58.190Z,5.20
2022-12-31T05:51:24.567Z,4.88
2022-12-31T05:53:50.969Z,5.28
2022-12-31T05:56:17.271Z,6.40
2022-12-31T05:58:43.651Z,6.30
2022-12-31T06:01:10.092Z,6.13
2022-12-31T06:03:36.564Z,5.70
2022-12-31T06:06:02.970Z,6.72
2022-12-31T06:08:29.337Z,6.15
2022-12-31T06:10:55.714Z,6.85
2022-12-31T06:13:22.155Z,6.28
2022-12-31T06:15:48.581Z,7.38
2022-12-31T06:18:15.051Z,6.82
2022-12-31T06:20:41.601Z,6.88
2022-12-31T06:23:07.965Z,6.32
2022-12-31T06:25:35.496Z,7.78
2022-12-31T06:28:01.891Z,5.53
2022-12-31T06:30:28.289Z,6.15
2022-12-31T06:32:55.544Z,6.05
2022-12-31T06:35:22.356Z,5.25
2022-12-31T06:37:48.670Z,4.80
2022-12-31T06:40:15.115Z,4.78
2022-12-31T06:42:41.503Z,4.65
2022-12-31T06:45:08.439Z,3.90
2022-12-31T06:47:34.855Z,4.07
2022-12-31T06:50:01.289Z,5.32
2022-12-31T06:52:27.758Z,4.88
2022-12-31T06:54:54.508Z,7.07
2022-12-31T06:57:21.038Z,6.70
2022-12-31T06:59:47.649Z,6.13
2022-12-31T07:02:23.011Z,5.70
2022-12-31T07:05:24.572Z,6.00
2022-12-31T07:08:08.789Z,6.75
2022-12-31T07:10:45.991Z,8.00
2022-12-31T07:13:39.604Z,9.52
2022-12-31T07:16:21.965Z,7.57
2022-12-31T07:18:56.312Z,6.72
2022-12-31T07:21:34.221Z,5.80
2022-12-31T07:24:00.950Z,4.88
2022-12-31T07:26:49.932Z,4.93
2022-12-31T07:29:40.889Z,3.83
2022-12-31T07:32:33.029Z,3.55
2022-12-31T07:35:35.258Z,3.20
2022-12-31T07:38:13.555Z,2.97
2022-12-31T07:40:59.819Z,2.85
2022-12-31T07:43:42.855Z,3.20
2022-12-31T07:46:26.747Z,3.15
2022-12-31T07:48:53.496Z,2.90
2022-12-31T07:51:20.309Z,2.90
2022-12-31T07:53:46.699Z,2.75
2022-12-31T07:56:13.562Z,3.40
2022-12-31T07:58:39.859Z,2.42
2022-12-31T08:01:12.461Z,2.50
2022-12-31T08:04:17.192Z,1.95
2022-12-31T08:06:58.199Z,2.13
2022-12-31T08:09:44.734Z,2.28
2022-12-31T08:12:11.211Z,2.45
2022-12-31T08:14:44.447Z,2.28
2022-12-31T08:17:16.796Z,2.10
2022-12-31T08:19:43.806Z,2.00
2022-12-31T08:22:48.598Z,2.20
2022-12-31T08:25:25.948Z,1.95
2022-12-31T08:28:03.036Z,1.80
2022-12-31T08:30:52.357Z,1.88
2022-12-31T08:33:24.767Z,1.83
2022-12-31T08:36:08.657Z,1.90
2022-12-31T08:38:56.248Z,1.88
2022-12-31T08:41:42.271Z,1.88
2022-12-31T08:44:22.999Z,1.65
2022-12-31T08:47:23.524Z,1.90
2022-12-31T08:49:50.100Z,2.00
2022-12-31T08:52:23.187Z,1.80
2022-12-31T08:54:49.752Z,1.80
2022-12-31T08:58:00.620Z,2.33
2022-12-31T09:00:27.997Z,2.17
2022-12-31T09:03:03.092Z,1.52
2022-12-31T09:05:32.705Z,1.80
2022-12-31T09:08:14.103Z,1.70
2022-12-31T09:11:10.838Z,1.73
2022-12-31T09:13:58.410Z,2.60
2022-12-31T09:17:02.148Z,2.88
2022-12-31T09:19:28.479Z,3.47
2022-12-31T09:21:55.180Z,5.05
2022-12-31T09:24:21.866Z,4.13
2022-12-31T09:27:03.269Z,5.05
2022-12-31T09:29:53.374Z,4.63
2022-12-31T09:32:29.430Z,5.20
2022-12-31T09:35:20.269Z,6.15
2022-12-31T09:37:54.558Z,6.90
2022-12-31T09:40:46.356Z,5.80
2022-12-31T09:43:31.570Z,5.30
2022-12-31T09:46:29.895Z,4.85
2022-12-31T09:49:08.945Z,4.97
2022-12-31T09:51:50.962Z,3.80
2022-12-31T09:54:50.173Z,3.65
2022-12-31T09:57:50.338Z,3.47
2022-12-31T10:00:33.226Z,3.22
2022-12-31T10:03:36.781Z,3.63
2022-12-31T10:06:24.546Z,3.15
2022-12-31T10:09:04.961Z,5.07
2022-12-31T10:11:31.266Z,4.60
2022-12-31T10:13:57.539Z,4.93
2022-12-31T10:16:32.979Z,3.78
2022-12-31T10:19:26.875Z,4.30
2022-12-31T10:22:08.172Z,4.47
2022-12-31T10:24:37.453Z,5.13
2022-12-31T10:27:12.789Z,5.63
2022-12-31T10:30:13.184Z,4.75
2022-12-31T10:33:15.114Z,6.28
2022-12-31T10:35:54.344Z,7.10
2022-12-31T10:38:42.240Z,6.13
2022-12-31T10:41:11.492Z,5.78
2022-12-31T10:44:08.118Z,5.70
2022-12-31T10:46:43.467Z,8.38
2022-12-31T10:49:28.646Z,8.10
2022-12-31T10:52:15.777Z,8.32
2022-12-31T10:55:15.672Z,14.70
2022-12-31T10:58:06.393Z,9.75
2022-12-31T11:01:05.402Z,9.25
2022-12-31T11:03:56.475Z,11.43
2022-12-31T11:06:28.750Z,12.07
2022-12-31T11:09:13.491Z,10.27
2022-12-31T11:11:56.873Z,9.80
2022-12-31T11:14:42.518Z,9.23
2022-12-31T11:17:30.076Z,9.63
2022-12-31T11:20:27.032Z,10.50
2022-12-31T11:23:15.184Z,10.10
2022-12-31T11:26:07.567Z,11.68
2022-12-31T11:28:47.149Z,8.98
2022-12-31T11:31:22.521Z,9.23
2022-12-31T11:34:06.930Z,8.02
2022-12-31T11:36:53.219Z,7.75
2022-12-31T11:39:49.020Z,7.78
2022-12-31T11:42:37.017Z,8.02
2022-12-31T11:45:27.671Z,8.50
2022-12-31T11:48:32.667Z,9.18
2022-12-31T11:51:18.002Z,8.18
2022-12-31T11:54:02.397Z,7.63
2022-12-31T11:56:37.204Z,7.80
2022-12-31T11:59:14.343Z,6.50
2022-12-31T12:02:00.373Z,5.97
2022-12-31T12:04:27.302Z,6.38
2022-12-31T12:06:53.757Z,7.13
2022-12-31T12:09:30.063Z,9.98
2022-12-31T12:12:02.810Z,9.98
2022-12-31T12:14:42.437Z,9.27
2022-12-31T12:17:14.457Z,44.72
2022-12-31T12:19:47.204Z,10.77
2022-12-31T12:22:21.583Z,10.25
2022-12-31T12:25:01.603Z,9.80
2022-12-31T12:27:30.075Z,19.13
2022-12-31T12:29:56.450Z,11.45
2022-12-31T12:32:25.646Z,9.27
2022-12-31T12:34:52.859Z,10.98
2022-12-31T12:37:25.216Z,10.07
2022-12-31T12:40:04.167Z,10.63
2022-12-31T12:42:30.622Z,10.23
2022-12-31T12:45:21.411Z,10.38
2022-12-31T12:47:54.357Z,9.07
2022-12-31T12:50:24.503Z,9.73
2022-12-31T12:53:02.186Z,9.50
2022-12-31T12:55:41.682Z,9.48
2022-12-31T12:58:19.621Z,10.85
2022-12-31T13:01:09.285Z,10.43
2022-12-31T13:04:32.419Z,8.75
2022-12-31T13:06:58.798Z,10.13
2022-12-31T13:09:48.252Z,9.73
2022-12-31T13:13:13.734Z,9.07
2022-12-31T13:15:40.806Z,9.30
2022-12-31T13:18:31.758Z,9.65
2022-12-31T13:21:07.109Z,9.30
2022-12-31T13:23:49.934Z,9.05
2022-12-31T13:26:34.367Z,8.32
2022-12-31T13:29:02.282Z,8.63
2022-12-31T13:31:39.124Z,9.75
2022-12-31T13:34:21.893Z,9.05
2022-12-31T13:36:51.577Z,10.27
2022-12-31T13:39:24.751Z,9.50
2022-12-31T13:42:03.474Z,9.52
2022-12-31T13:44:49.461Z,8.52
2022-12-31T13:47:43.934Z,9.60
2022-12-31T13:50:19.481Z,8.45
2022-12-31T13:53:22.646Z,9.30
2022-12-31T13:55:57.014Z,10.98
2022-12-31T13:58:48.744Z,11.48
2022-12-31T14:01:18.246Z,9.40
2022-12-31T14:03:59.261Z,10.32
2022-12-31T14:06:44.295Z,11.70
2022-12-31T14:09:17.777Z,10.10
2022-12-31T14:12:01.287Z,10.00
2022-12-31T14:14:47.881Z,12.30
2022-12-31T14:17:23.083Z,10.35
2022-12-31T14:20:20.712Z,12.00
2022-12-31T14:23:07.396Z,10.85
2022-12-31T14:25:39.577Z,11.30
2022-12-31T14:28:15.324Z,11.75
2022-12-31T14:30:43.198Z,10.23
2022-12-31T14:33:33.038Z,13.20
2022-12-31T14:36:20.687Z,13.32
2022-12-31T14:39:05.764Z,10.73
2022-12-31T14:41:37.848Z,11.02
2022-12-31T14:44:40.708Z,10.68
2022-12-31T14:47:12.767Z,13.77
2022-12-31T14:49:46.833Z,9.63
2022-12-31T14:52:15.908Z,10.15
2022-12-31T14:54:42.660Z,8.38
2022-12-31T14:58:16.807Z,7.60
2022-12-31T15:00:38.007Z,7.78
2022-12-31T15:03:05.872Z,7.40
2022-12-31T15:05:37.473Z,7.40
2022-12-31T15:08:13.160Z,16.20
2022-12-31T15:11:05.858Z,9.27
2022-12-31T15:13:50.636Z,9.23
2022-12-31T15:16:32.151Z,10.00
2022-12-31T15:19:45.810Z,10.18
2022-12-31T15:22:24.013Z,10.55
2022-12-31T15:24:50.464Z,12.35
2022-12-31T15:27:37.999Z,13.40
2022-12-31T15:30:06.115Z,12.43
2022-12-31T15:32:43.111Z,32.65
2022-12-31T15:35:21.638Z,19.83
2022-12-31T15:38:12.960Z,12.70
2022-12-31T15:40:47.730Z,12.75
2022-12-31T15:43:16.918Z,11.68
2022-12-31T15:45:43.746Z,13.40
2022-12-31T15:48:17.955Z,12.18
2022-12-31T15:50:46.046Z,12.45
2022-12-31T15:53:26.225Z,10.65
2022-12-31T15:55:54.527Z,15.75
2022-12-31T15:58:25.693Z,11.85
2022-12-31T16:00:51.994Z,16.10
2022-12-31T16:03:24.216Z,16.58
2022-12-31T16:05:58.483Z,15.32
2022-12-31T16:08:29.766Z,17.70
2022-12-31T16:10:56.110Z,17.92
2022-12-31T16:13:24.568Z,18.17
2022-12-31T16:15:57.558Z,20.02
2022-12-31T16:18:23.854Z,18.30
2022-12-31T16:20:50.271Z,17.40
2022-12-31T16:23:23.642Z,13.80
2022-12-31T16:25:52.840Z,11.10
2022-12-31T16:28:23.339Z,10.95
2022-12-31T16:31:03.894Z,15.48
2022-12-31T16:33:31.412Z,13.93
2022-12-31T16:36:00.756Z,10.55
2022-12-31T16:38:32.661Z,9.55
2022-12-31T16:41:07.185Z,9.90
2022-12-31T16:43:38.799Z,8.88
2022-12-31T16:46:17.480Z,20.08
2022-12-31T16:48:54.045Z,8.98
2022-12-31T16:51:24.370Z,8.68
2022-12-31T16:53:51.969Z,9.25
2022-12-31T16:56:32.523Z,8.15
2022-12-31T16:59:04.545Z,8.95
2022-12-31T17:01:34.113Z,8.80
2022-12-31T17:04:06.214Z,17.38
2022-12-31T17:06:32.678Z,15.00
2022-12-31T17:09:12.643Z,13.30
2022-12-31T17:11:49.497Z,15.68
2022-12-31T17:14:18.827Z,12.05
2022-12-31T17:17:02.865Z,18.88
2022-12-31T17:19:44.013Z,14.48
2022-12-31T17:22:29.818Z,9.82
2022-12-31T17:25:03.878Z,9.65
2022-12-31T17:27:30.931Z,11.57
2022-12-31T17:30:20.531Z,9.90
2022-12-31T17:32:47.440Z,7.05
2022-12-31T17:35:29.276Z,7.07
2022-12-31T17:38:27.437Z,9.52
2022-12-31T17:41:01.283Z,9.10
2022-12-31T17:43:34.737Z,8.00
2022-12-31T17:46:02.965Z,8.25
2022-12-31T17:48:29.523Z,8.63
2022-12-31T17:50:59.007Z,7.97
2022-12-31T17:53:25.957Z,8.05
2022-12-31T17:55:55.613Z,5.53
2022-12-31T17:59:03.596Z,6.20
2022-12-31T18:01:30.015Z,6.95
2022-12-31T18:03:56.440Z,6.05
2022-12-31T18:06:22.833Z,8.18
2022-12-31T18:08:49.199Z,6.13
2022-12-31T18:11:20.952Z,7.63
2022-12-31T18:13:48.795Z,5.00
2022-12-31T18:16:15.582Z,5.53
2022-12-31T18:18:42.183Z,6.00
2022-12-31T18:21:26.891Z,5.45
2022-12-31T18:26:21.681Z,5.43
2022-12-31T18:28:48.961Z,7.10
2022-12-31T18:31:26.339Z,4.30
2022-12-31T18:33:55.231Z,4.95
2022-12-31T18:36:23.203Z,8.00
2022-12-31T18:38:50.357Z,5.47
2022-12-31T18:41:25.330Z,8.45
2022-12-31T18:43:51.730Z,6.78
2022-12-31T18:46:21.215Z,5.30
2022-12-31T18:48:47.999Z,6.60
2022-12-31T18:51:14.323Z,6.60
2022-12-31T18:53:40.737Z,7.78
2022-12-31T18:56:11.374Z,5.45
2022-12-31T18:58:37.744Z,5.70
2022-12-31T19:01:04.489Z,5.10
2022-12-31T19:03:31.246Z,5.43
2022-12-31T19:05:57.688Z,6.07
2022-12-31T19:08:24.165Z,6.38
2022-12-31T19:10:52.203Z,9.23
2022-12-31T19:13:19.895Z,5.20
2022-12-31T19:15:53.887Z,6.07
2022-12-31T19:18:20.244Z,5.22
2022-12-31T19:20:47.085Z,5.18
2022-12-31T19:23:15.310Z,5.05
2022-12-31T19:25:42.585Z,5.10
2022-12-31T19:28:24.666Z,4.63
2022-12-31T19:30:51.788Z,5.43
2022-12-31T19:33:18.679Z,5.63
2022-12-31T19:35:45.863Z,6.40
2022-12-31T19:38:24.199Z,13.70
2022-12-31T19:40:52.149Z,4.90
2022-12-31T19:43:20.535Z,4.85
2022-12-31T19:45:47.426Z,5.82
2022-12-31T19:48:17.949Z,5.20
2022-12-31T19:50:48.276Z,5.63
2022-12-31T19:53:18.167Z,6.20
2022-12-31T19:55:44.551Z,4.47
2022-12-31T19:58:20.359Z,8.18
2022-12-31T20:00:55.705Z,4.93
2022-12-31T20:03:25.866Z,5.10
2022-12-31T20:06:05.290Z,5.25
2022-12-31T20:08:31.758Z,4.78
2022-12-31T20:10:58.152Z,7.47
2022-12-31T20:13:26.349Z,6.40
2022-12-31T20:15:53.991Z,8.48
2022-12-31T20:18:20.405Z,5.78
2022-12-31T20:20:53.457Z,10.40
2022-12-31T20:23:21.879Z,6.43
2022-12-31T20:25:58.538Z,6.40
2022-12-31T20:28:25.097Z,6.35
2022-12-31T20:30:51.768Z,7.53
2022-12-31T20:33:19.342Z,4.90
2022-12-31T20:35:45.805Z,6.18
2022-12-31T20:38:12.304Z,5.80
2022-12-31T20:40:44.566Z,5.72
2022-12-31T20:43:13.055Z,6.63
2022-12-31T20:45:40.599Z,8.40
2022-12-31T20:48:07.024Z,7.43
2022-12-31T20:50:33.415Z,8.65
2022-12-31T20:52:59.755Z,8.13
2022-12-31T20:55:26.126Z,6.97
2022-12-31T20:57:52.924Z,7.60
2022-12-31T21:00:19.566Z,5.85
2022-12-31T21:02:53.822Z,6.55
2022-12-31T21:05:22.990Z,6.32
2022-12-31T21:07:49.434Z,13.27
2022-12-31T21:10:15.918Z,9.48
2022-12-31T21:12:42.420Z,8.25
2022-12-31T21:15:09.866Z,8.98
2022-12-31T21:17:36.321Z,7.32
2022-12-31T21:20:02.723Z,7.32
2022-12-31T21:22:29.012Z,6.28
2022-12-31T21:24:55.607Z,6.38
2022-12-31T21:27:21.936Z,5.93
2022-12-31T21:30:17.104Z,6.60
2022-12-31T21:32:34.707Z,9.52
2022-12-31T21:35:40.279Z,9.98
2022-12-31T21:37:58.275Z,7.88
2022-12-31T21:40:26.637Z,7.80
2022-12-31T21:42:52.940Z,7.05
2022-12-31T21:45:19.276Z,8.60
2022-12-31T21:47:47.580Z,8.25
2022-12-31T21:50:14.321Z,7.57
2022-12-31T21:52:40.777Z,6.93
2022-12-31T21:55:07.574Z,5.57
2022-12-31T21:57:51.964Z,5.85
2022-12-31T22:00:44.281Z,5.50
2022-12-31T22:03:11.556Z,6.68
2022-12-31T22:05:38.717Z,7.82
2022-12-31T22:08:05.271Z,6.97
2022-12-31T22:10:37.213Z,6.15
2022-12-31T22:13:03.932Z,6.45
2022-12-31T22:15:30.334Z,8.30
2022-12-31T22:17:56.756Z,6.68
2022-12-31T22:20:27.839Z,6.53
2022-12-31T22:22:54.455Z,5.70
2022-12-31T22:25:21.251Z,9.82
2022-12-31T22:28:04.422Z,7.82
2022-12-31T22:30:34.554Z,6.38
2022-12-31T22:33:00.913Z,5.97
2022-12-31T22:35:27.367Z,6.32
2022-12-31T22:37:59.133Z,6.75
2022-12-31T22:40:27.987Z,6.72
2022-12-31T22:42:55.233Z,6.10
2022-12-31T22:45:21.656Z,7.30
2022-12-31T22:47:48.036Z,5.85
2022-12-31T22:50:14.550Z,6.20
2022-12-31T22:52:41.036Z,6.68
2022-12-31T22:55:08.229Z,5.60
2022-12-31T22:57:34.648Z,5.87
2022-12-31T23:00:00.922Z,6.63
2022-12-31T23:02:35.941Z,31.63
2022-12-31T23:05:16.238Z,39.78
2022-12-31T23:07:44.041Z,37.95
2022-12-31T23:10:12.359Z,30.80
2022-12-31T23:12:38.705Z,37.78
2022-12-31T23:15:05.569Z,46.50
2022-12-31T23:17:32.288Z,96.43
2022-12-31T23:19:59.856Z,76.35
2022-12-31T23:22:26.179Z,55.28
2022-12-31T23:24:52.520Z,46.60
2022-12-31T23:27:19.029Z,41.47
2022-12-31T23:29:47.406Z,51.13
2022-12-31T23:32:18.042Z,40.75
2022-12-31T23:34:45.768Z,39.20
2022-12-31T23:37:13.559Z,36.13
2022-12-31T23:39:40.159Z,34.05
2022-12-31T23:42:06.602Z,35.33
2022-12-31T23:44:33.114Z,38.88
2022-12-31T23:46:59.971Z,36.17
2022-12-31T23:49:26.353Z,33.95
2022-12-31T23:51:52.805Z,26.42
2022-12-31T23:54:19.279Z,22.92
2022-12-31T23:56:45.720Z,21.20
2022-12-31T23:59:12.695Z,24.50
